sensor_id;sensor_type;location;lat;lon;timestamp;P1;durP1;ratioP1;P2;durP2;ratioP2
55222;SDS011;41090;48.632;12.428;2023-04-25T00:02:15;7.03;;;4.60;;
55222;SDS011;41090;48.632;12.428;2023-04-25T00:04:40;5.87;;;4.30;;
55222;SDS011;41090;48.632;12.428;2023-04-25T00:07:05;4.87;;;4.30;;
55222;SDS011;41090;48.632;12.428;2023-04-25T00:09:31;5.23;;;4.33;;
55222;SDS011;41090;48.632;12.428;2023-04-25T00:11:57;5.27;;;4.20;;
55222;SDS011;41090;48.632;12.428;2023-04-25T00:14:22;9.27;;;4.87;;
55222;SDS011;41090;48.632;12.428;2023-04-25T00:16:48;4.60;;;4.20;;
55222;SDS011;41090;48.632;12.428;2023-04-25T00:19:13;5.00;;;4.50;;
55222;SDS011;41090;48.632;12.428;2023-04-25T00:21:38;4.70;;;4.20;;
55222;SDS011;41090;48.632;12.428;2023-04-25T00:24:06;5.33;;;4.33;;
55222;SDS011;41090;48.632;12.428;2023-04-25T00:26:31;4.20;;;3.80;;
55222;SDS011;41090;48.632;12.428;2023-04-25T00:28:56;5.00;;;4.17;;
55222;SDS011;41090;48.632;12.428;2023-04-25T00:31:21;4.13;;;3.73;;
55222;SDS011;41090;48.632;12.428;2023-04-25T00:33:47;4.03;;;3.67;;
55222;SDS011;41090;48.632;12.428;2023-04-25T00:36:12;4.40;;;4.00;;
55222;SDS011;41090;48.632;12.428;2023-04-25T00:38:38;5.47;;;4.20;;
55222;SDS011;41090;48.632;12.428;2023-04-25T00:41:04;5.13;;;4.20;;
55222;SDS011;41090;48.632;12.428;2023-04-25T00:43:29;4.67;;;4.27;;
55222;SDS011;41090;48.632;12.428;2023-04-25T00:45:55;4.50;;;4.10;;
55222;SDS011;41090;48.632;12.428;2023-04-25T00:48:22;4.60;;;4.20;;
55222;SDS011;41090;48.632;12.428;2023-04-25T00:50:55;5.23;;;4.47;;
55222;SDS011;41090;48.632;12.428;2023-04-25T00:53:21;5.00;;;4.50;;
55222;SDS011;41090;48.632;12.428;2023-04-25T00:55:47;4.67;;;4.27;;
55222;SDS011;41090;48.632;12.428;2023-04-25T00:58:12;4.80;;;4.40;;
55222;SDS011;41090;48.632;12.428;2023-04-25T01:00:38;4.60;;;4.20;;
55222;SDS011;41090;48.632;12.428;2023-04-25T01:03:05;5.23;;;4.47;;
55222;SDS011;41090;48.632;12.428;2023-04-25T01:05:30;4.67;;;4.10;;
55222;SDS011;41090;48.632;12.428;2023-04-25T01:07:55;4.33;;;3.93;;
55222;SDS011;41090;48.632;12.428;2023-04-25T01:10:21;4.97;;;4.50;;
55222;SDS011;41090;48.632;12.428;2023-04-25T01:12:46;5.00;;;4.10;;
55222;SDS011;41090;48.632;12.428;2023-04-25T01:15:11;5.27;;;4.77;;
55222;SDS011;41090;48.632;12.428;2023-04-25T01:17:37;4.60;;;4.17;;
55222;SDS011;41090;48.632;12.428;2023-04-25T01:20:03;5.23;;;3.93;;
55222;SDS011;41090;48.632;12.428;2023-04-25T01:22:29;4.70;;;4.20;;
55222;SDS011;41090;48.632;12.428;2023-04-25T01:24:54;5.23;;;4.40;;
55222;SDS011;41090;48.632;12.428;2023-04-25T01:27:20;4.90;;;4.33;;
55222;SDS011;41090;48.632;12.428;2023-04-25T01:29:45;4.77;;;4.27;;
55222;SDS011;41090;48.632;12.428;2023-04-25T01:32:11;5.00;;;4.50;;
55222;SDS011;41090;48.632;12.428;2023-04-25T01:34:36;4.57;;;4.17;;
55222;SDS011;41090;48.632;12.428;2023-04-25T01:37:01;5.27;;;4.77;;
55222;SDS011;41090;48.632;12.428;2023-04-25T01:39:26;5.20;;;4.70;;
55222;SDS011;41090;48.632;12.428;2023-04-25T01:41:52;5.67;;;4.87;;
55222;SDS011;41090;48.632;12.428;2023-04-25T01:44:17;5.30;;;4.30;;
55222;SDS011;41090;48.632;12.428;2023-04-25T01:46:42;5.23;;;4.73;;
55222;SDS011;41090;48.632;12.428;2023-04-25T01:49:08;4.93;;;4.53;;
55222;SDS011;41090;48.632;12.428;2023-04-25T01:51:33;5.70;;;4.70;;
55222;SDS011;41090;48.632;12.428;2023-04-25T01:53:58;5.73;;;5.03;;
55222;SDS011;41090;48.632;12.428;2023-04-25T01:56:24;4.83;;;4.43;;
55222;SDS011;41090;48.632;12.428;2023-04-25T01:58:50;5.43;;;4.93;;
55222;SDS011;41090;48.632;12.428;2023-04-25T02:01:15;5.83;;;5.07;;
55222;SDS011;41090;48.632;12.428;2023-04-25T02:03:41;5.93;;;5.43;;
55222;SDS011;41090;48.632;12.428;2023-04-25T02:06:06;6.13;;;5.03;;
55222;SDS011;41090;48.632;12.428;2023-04-25T02:08:31;5.80;;;5.10;;
55222;SDS011;41090;48.632;12.428;2023-04-25T02:10:56;5.60;;;5.10;;
55222;SDS011;41090;48.632;12.428;2023-04-25T02:13:22;6.70;;;5.63;;
55222;SDS011;41090;48.632;12.428;2023-04-25T02:15:47;6.67;;;5.57;;
55222;SDS011;41090;48.632;12.428;2023-04-25T02:18:12;6.30;;;5.70;;
55222;SDS011;41090;48.632;12.428;2023-04-25T02:20:38;8.33;;;5.90;;
55222;SDS011;41090;48.632;12.428;2023-04-25T02:23:03;6.40;;;5.80;;
55222;SDS011;41090;48.632;12.428;2023-04-25T02:25:28;6.57;;;5.30;;
55222;SDS011;41090;48.632;12.428;2023-04-25T02:27:54;5.83;;;5.30;;
55222;SDS011;41090;48.632;12.428;2023-04-25T02:30:19;7.20;;;4.97;;
55222;SDS011;41090;48.632;12.428;2023-04-25T02:32:45;5.63;;;5.13;;
55222;SDS011;41090;48.632;12.428;2023-04-25T02:35:10;6.70;;;5.40;;
55222;SDS011;41090;48.632;12.428;2023-04-25T02:37:36;5.80;;;5.30;;
55222;SDS011;41090;48.632;12.428;2023-04-25T02:40:02;5.97;;;5.30;;
55222;SDS011;41090;48.632;12.428;2023-04-25T02:42:28;6.53;;;5.57;;
55222;SDS011;41090;48.632;12.428;2023-04-25T02:44:53;6.53;;;5.00;;
55222;SDS011;41090;48.632;12.428;2023-04-25T02:47:19;5.93;;;5.27;;
55222;SDS011;41090;48.632;12.428;2023-04-25T02:49:44;5.50;;;5.00;;
55222;SDS011;41090;48.632;12.428;2023-04-25T02:52:10;5.27;;;4.77;;
55222;SDS011;41090;48.632;12.428;2023-04-25T02:54:35;6.37;;;5.17;;
55222;SDS011;41090;48.632;12.428;2023-04-25T02:57:00;7.47;;;4.93;;
55222;SDS011;41090;48.632;12.428;2023-04-25T02:59:27;5.80;;;5.30;;
55222;SDS011;41090;48.632;12.428;2023-04-25T03:01:52;5.30;;;4.80;;
55222;SDS011;41090;48.632;12.428;2023-04-25T03:04:17;5.63;;;5.13;;
55222;SDS011;41090;48.632;12.428;2023-04-25T03:06:44;7.43;;;5.27;;
55222;SDS011;41090;48.632;12.428;2023-04-25T03:09:09;5.80;;;5.07;;
55222;SDS011;41090;48.632;12.428;2023-04-25T03:11:36;5.77;;;5.27;;
55222;SDS011;41090;48.632;12.428;2023-04-25T03:14:02;6.63;;;5.80;;
55222;SDS011;41090;48.632;12.428;2023-04-25T03:16:27;5.50;;;5.00;;
55222;SDS011;41090;48.632;12.428;2023-04-25T03:18:52;6.20;;;5.60;;
55222;SDS011;41090;48.632;12.428;2023-04-25T03:21:17;6.63;;;5.10;;
55222;SDS011;41090;48.632;12.428;2023-04-25T03:23:42;6.30;;;5.80;;
55222;SDS011;41090;48.632;12.428;2023-04-25T03:26:08;5.70;;;5.20;;
55222;SDS011;41090;48.632;12.428;2023-04-25T03:28:33;5.93;;;5.23;;
55222;SDS011;41090;48.632;12.428;2023-04-25T03:30:58;6.07;;;5.53;;
55222;SDS011;41090;48.632;12.428;2023-04-25T03:33:23;5.43;;;4.93;;
55222;SDS011;41090;48.632;12.428;2023-04-25T03:35:49;5.33;;;4.93;;
55222;SDS011;41090;48.632;12.428;2023-04-25T03:38:15;5.67;;;5.07;;
55222;SDS011;41090;48.632;12.428;2023-04-25T03:40:40;6.13;;;4.80;;
55222;SDS011;41090;48.632;12.428;2023-04-25T03:43:05;5.80;;;5.30;;
55222;SDS011;41090;48.632;12.428;2023-04-25T03:45:30;5.23;;;4.73;;
55222;SDS011;41090;48.632;12.428;2023-04-25T03:47:56;6.93;;;4.90;;
55222;SDS011;41090;48.632;12.428;2023-04-25T03:50:21;5.43;;;4.73;;
55222;SDS011;41090;48.632;12.428;2023-04-25T03:52:46;5.30;;;4.63;;
55222;SDS011;41090;48.632;12.428;2023-04-25T03:55:11;6.13;;;5.13;;
55222;SDS011;41090;48.632;12.428;2023-04-25T03:57:37;5.83;;;4.70;;
55222;SDS011;41090;48.632;12.428;2023-04-25T04:00:02;5.13;;;4.53;;
55222;SDS011;41090;48.632;12.428;2023-04-25T04:02:28;5.37;;;4.63;;
55222;SDS011;41090;48.632;12.428;2023-04-25T04:04:54;5.27;;;4.77;;
55222;SDS011;41090;48.632;12.428;2023-04-25T04:07:21;6.63;;;5.40;;
55222;SDS011;41090;48.632;12.428;2023-04-25T04:09:46;5.40;;;4.90;;
55222;SDS011;41090;48.632;12.428;2023-04-25T04:12:11;6.97;;;5.10;;
55222;SDS011;41090;48.632;12.428;2023-04-25T04:14:37;5.70;;;5.20;;
55222;SDS011;41090;48.632;12.428;2023-04-25T04:17:02;5.77;;;4.50;;
55222;SDS011;41090;48.632;12.428;2023-04-25T04:19:27;4.87;;;4.47;;
55222;SDS011;41090;48.632;12.428;2023-04-25T04:21:52;4.67;;;4.13;;
55222;SDS011;41090;48.632;12.428;2023-04-25T04:24:18;4.87;;;4.37;;
55222;SDS011;41090;48.632;12.428;2023-04-25T04:26:43;5.33;;;4.30;;
55222;SDS011;41090;48.632;12.428;2023-04-25T04:29:10;4.73;;;4.23;;
55222;SDS011;41090;48.632;12.428;2023-04-25T04:31:35;5.67;;;5.17;;
55222;SDS011;41090;48.632;12.428;2023-04-25T04:34:00;5.43;;;4.77;;
55222;SDS011;41090;48.632;12.428;2023-04-25T04:36:26;5.57;;;4.77;;
55222;SDS011;41090;48.632;12.428;2023-04-25T04:38:52;5.23;;;4.73;;
55222;SDS011;41090;48.632;12.428;2023-04-25T04:41:18;5.60;;;4.57;;
55222;SDS011;41090;48.632;12.428;2023-04-25T04:43:44;5.80;;;4.83;;
55222;SDS011;41090;48.632;12.428;2023-04-25T04:46:09;10.33;;;8.30;;
55222;SDS011;41090;48.632;12.428;2023-04-25T04:48:35;18.90;;;13.43;;
55222;SDS011;41090;48.632;12.428;2023-04-25T04:51:00;9.00;;;8.10;;
55222;SDS011;41090;48.632;12.428;2023-04-25T04:53:26;7.30;;;5.97;;
55222;SDS011;41090;48.632;12.428;2023-04-25T04:55:52;7.20;;;6.50;;
55222;SDS011;41090;48.632;12.428;2023-04-25T05:58:35;6.07;;;4.60;;
55222;SDS011;41090;48.632;12.428;2023-04-25T06:01:00;7.03;;;4.63;;
55222;SDS011;41090;48.632;12.428;2023-04-25T06:03:25;4.97;;;4.50;;
55222;SDS011;41090;48.632;12.428;2023-04-25T06:05:51;5.90;;;4.70;;
55222;SDS011;41090;48.632;12.428;2023-04-25T06:08:16;6.70;;;5.00;;
55222;SDS011;41090;48.632;12.428;2023-04-25T06:10:41;5.63;;;4.73;;
55222;SDS011;41090;48.632;12.428;2023-04-25T06:13:08;5.00;;;4.50;;
55222;SDS011;41090;48.632;12.428;2023-04-25T06:15:33;6.10;;;4.70;;
55222;SDS011;41090;48.632;12.428;2023-04-25T06:17:58;6.63;;;4.87;;
55222;SDS011;41090;48.632;12.428;2023-04-25T06:20:23;5.67;;;4.80;;
55222;SDS011;41090;48.632;12.428;2023-04-25T06:22:49;7.67;;;4.60;;
55222;SDS011;41090;48.632;12.428;2023-04-25T06:25:15;7.57;;;4.20;;
55222;SDS011;41090;48.632;12.428;2023-04-25T06:27:40;5.50;;;4.27;;
55222;SDS011;41090;48.632;12.428;2023-04-25T06:30:06;4.67;;;4.17;;
55222;SDS011;41090;48.632;12.428;2023-04-25T06:32:31;5.13;;;4.17;;
55222;SDS011;41090;48.632;12.428;2023-04-25T06:34:57;4.23;;;3.60;;
55222;SDS011;41090;48.632;12.428;2023-04-25T06:37:23;4.40;;;3.80;;
55222;SDS011;41090;48.632;12.428;2023-04-25T06:39:51;4.20;;;3.80;;
55222;SDS011;41090;48.632;12.428;2023-04-25T06:42:16;4.33;;;3.93;;
55222;SDS011;41090;48.632;12.428;2023-04-25T06:44:42;4.47;;;3.80;;
55222;SDS011;41090;48.632;12.428;2023-04-25T06:47:07;5.83;;;3.90;;
55222;SDS011;41090;48.632;12.428;2023-04-25T06:49:33;4.20;;;3.80;;
55222;SDS011;41090;48.632;12.428;2023-04-25T06:51:58;5.57;;;4.10;;
55222;SDS011;41090;48.632;12.428;2023-04-25T06:54:24;5.87;;;4.43;;
55222;SDS011;41090;48.632;12.428;2023-04-25T06:56:52;7.33;;;4.43;;
55222;SDS011;41090;48.632;12.428;2023-04-25T06:59:17;4.87;;;4.20;;
55222;SDS011;41090;48.632;12.428;2023-04-25T07:01:48;4.63;;;3.97;;
55222;SDS011;41090;48.632;12.428;2023-04-25T07:04:14;6.10;;;4.20;;
55222;SDS011;41090;48.632;12.428;2023-04-25T07:06:45;6.93;;;4.40;;
55222;SDS011;41090;48.632;12.428;2023-04-25T07:09:13;6.73;;;4.40;;
55222;SDS011;41090;48.632;12.428;2023-04-25T07:11:39;6.87;;;4.43;;
55222;SDS011;41090;48.632;12.428;2023-04-25T07:14:08;5.00;;;3.83;;
55222;SDS011;41090;48.632;12.428;2023-04-25T07:16:34;4.50;;;3.60;;
55222;SDS011;41090;48.632;12.428;2023-04-25T07:19:02;5.43;;;4.00;;
55222;SDS011;41090;48.632;12.428;2023-04-25T07:21:28;7.33;;;3.73;;
55222;SDS011;41090;48.632;12.428;2023-04-25T07:23:58;4.33;;;3.30;;
55222;SDS011;41090;48.632;12.428;2023-04-25T07:26:25;4.23;;;3.70;;
55222;SDS011;41090;48.632;12.428;2023-04-25T07:28:52;7.50;;;3.83;;
55222;SDS011;41090;48.632;12.428;2023-04-25T07:31:19;4.23;;;3.43;;
55222;SDS011;41090;48.632;12.428;2023-04-25T07:33:46;3.80;;;2.90;;
55222;SDS011;41090;48.632;12.428;2023-04-25T07:36:14;3.10;;;2.50;;
55222;SDS011;41090;48.632;12.428;2023-04-25T07:38:49;4.07;;;3.07;;
55222;SDS011;41090;48.632;12.428;2023-04-25T07:41:17;3.17;;;2.70;;
55222;SDS011;41090;48.632;12.428;2023-04-25T07:43:52;3.50;;;2.67;;
55222;SDS011;41090;48.632;12.428;2023-04-25T07:46:18;3.13;;;2.40;;
55222;SDS011;41090;48.632;12.428;2023-04-25T07:48:47;3.83;;;2.30;;
55222;SDS011;41090;48.632;12.428;2023-04-25T07:51:16;4.13;;;2.60;;
55222;SDS011;41090;48.632;12.428;2023-04-25T07:53:42;2.60;;;2.40;;
55222;SDS011;41090;48.632;12.428;2023-04-25T07:56:11;2.97;;;2.67;;
55222;SDS011;41090;48.632;12.428;2023-04-25T07:58:37;2.80;;;1.90;;
55222;SDS011;41090;48.632;12.428;2023-04-25T08:01:07;2.77;;;2.20;;
55222;SDS011;41090;48.632;12.428;2023-04-25T08:03:35;2.83;;;2.23;;
55222;SDS011;41090;48.632;12.428;2023-04-25T08:06:03;3.60;;;2.57;;
55222;SDS011;41090;48.632;12.428;2023-04-25T08:08:29;3.10;;;2.50;;
55222;SDS011;41090;48.632;12.428;2023-04-25T08:10:59;2.57;;;2.10;;
55222;SDS011;41090;48.632;12.428;2023-04-25T08:13:27;3.70;;;2.23;;
55222;SDS011;41090;48.632;12.428;2023-04-25T08:15:52;2.90;;;1.97;;
55222;SDS011;41090;48.632;12.428;2023-04-25T08:18:19;3.63;;;2.00;;
55222;SDS011;41090;48.632;12.428;2023-04-25T08:20:45;2.33;;;1.93;;
55222;SDS011;41090;48.632;12.428;2023-04-25T08:23:13;4.33;;;2.40;;
55222;SDS011;41090;48.632;12.428;2023-04-25T08:25:40;2.73;;;2.30;;
55222;SDS011;41090;48.632;12.428;2023-04-25T08:28:09;3.63;;;2.30;;
55222;SDS011;41090;48.632;12.428;2023-04-25T08:30:36;2.97;;;2.23;;
55222;SDS011;41090;48.632;12.428;2023-04-25T08:33:05;2.80;;;2.50;;
55222;SDS011;41090;48.632;12.428;2023-04-25T08:35:31;2.63;;;2.43;;
55222;SDS011;41090;48.632;12.428;2023-04-25T08:38:02;4.67;;;3.03;;
55222;SDS011;41090;48.632;12.428;2023-04-25T08:40:27;3.13;;;2.73;;
55222;SDS011;41090;48.632;12.428;2023-04-25T08:42:58;3.93;;;2.80;;
55222;SDS011;41090;48.632;12.428;2023-04-25T08:45:26;4.60;;;2.80;;
55222;SDS011;41090;48.632;12.428;2023-04-25T08:47:52;3.60;;;2.80;;
55222;SDS011;41090;48.632;12.428;2023-04-25T08:50:18;3.43;;;2.73;;
55222;SDS011;41090;48.632;12.428;2023-04-25T08:52:46;3.37;;;2.80;;
55222;SDS011;41090;48.632;12.428;2023-04-25T08:55:12;3.40;;;2.70;;
55222;SDS011;41090;48.632;12.428;2023-04-25T08:57:37;5.80;;;2.80;;
55222;SDS011;41090;48.632;12.428;2023-04-25T09:00:03;3.90;;;2.80;;
55222;SDS011;41090;48.632;12.428;2023-04-25T09:02:29;5.43;;;2.80;;
55222;SDS011;41090;48.632;12.428;2023-04-25T09:04:56;2.30;;;2.10;;
55222;SDS011;41090;48.632;12.428;2023-04-25T09:07:22;2.37;;;2.17;;
55222;SDS011;41090;48.632;12.428;2023-04-25T09:09:47;4.13;;;2.63;;
55222;SDS011;41090;48.632;12.428;2023-04-25T09:12:12;2.90;;;2.60;;
55222;SDS011;41090;48.632;12.428;2023-04-25T09:14:38;3.80;;;2.80;;
55222;SDS011;41090;48.632;12.428;2023-04-25T09:17:04;2.63;;;2.43;;
55222;SDS011;41090;48.632;12.428;2023-04-25T09:19:34;3.13;;;2.80;;
55222;SDS011;41090;48.632;12.428;2023-04-25T09:22:05;3.23;;;2.80;;
55222;SDS011;41090;48.632;12.428;2023-04-25T09:24:43;3.73;;;3.00;;
55222;SDS011;41090;48.632;12.428;2023-04-25T09:27:12;3.40;;;3.10;;
55222;SDS011;41090;48.632;12.428;2023-04-25T09:29:38;3.30;;;2.90;;
55222;SDS011;41090;48.632;12.428;2023-04-25T09:34:40;3.40;;;3.10;;
55222;SDS011;41090;48.632;12.428;2023-04-25T09:37:06;4.50;;;3.00;;
55222;SDS011;41090;48.632;12.428;2023-04-25T09:39:32;2.50;;;2.30;;
55222;SDS011;41090;48.632;12.428;2023-04-25T09:41:57;3.43;;;2.20;;
55222;SDS011;41090;48.632;12.428;2023-04-25T09:44:24;3.40;;;2.60;;
55222;SDS011;41090;48.632;12.428;2023-04-25T09:46:49;2.73;;;2.37;;
55222;SDS011;41090;48.632;12.428;2023-04-25T09:49:19;3.93;;;2.33;;
55222;SDS011;41090;48.632;12.428;2023-04-25T09:51:53;2.00;;;1.80;;
55222;SDS011;41090;48.632;12.428;2023-04-25T09:54:18;2.77;;;1.80;;
55222;SDS011;41090;48.632;12.428;2023-04-25T09:56:44;2.33;;;2.13;;
55222;SDS011;41090;48.632;12.428;2023-04-25T09:59:16;3.77;;;2.27;;
55222;SDS011;41090;48.632;12.428;2023-04-25T10:01:43;2.10;;;2.00;;
55222;SDS011;41090;48.632;12.428;2023-04-25T10:04:10;3.00;;;2.40;;
55222;SDS011;41090;48.632;12.428;2023-04-25T10:06:36;3.50;;;2.40;;
55222;SDS011;41090;48.632;12.428;2023-04-25T10:09:02;3.07;;;2.70;;
55222;SDS011;41090;48.632;12.428;2023-04-25T10:11:28;3.35;;;2.75;;
55222;SDS011;41090;48.632;12.428;2023-04-25T10:13:55;3.90;;;2.42;;
55222;SDS011;41090;48.632;12.428;2023-04-25T10:16:21;2.28;;;2.08;;
55222;SDS011;41090;48.632;12.428;2023-04-25T10:18:46;1.98;;;1.80;;
55222;SDS011;41090;48.632;12.428;2023-04-25T10:21:11;1.92;;;1.70;;
55222;SDS011;41090;48.632;12.428;2023-04-25T10:23:37;2.88;;;1.80;;
55222;SDS011;41090;48.632;12.428;2023-04-25T10:26:03;2.10;;;1.88;;
55222;SDS011;41090;48.632;12.428;2023-04-25T10:28:29;2.00;;;1.65;;
55222;SDS011;41090;48.632;12.428;2023-04-25T10:30:59;2.40;;;2.20;;
55222;SDS011;41090;48.632;12.428;2023-04-25T10:36:21;3.30;;;2.42;;
55222;SDS011;41090;48.632;12.428;2023-04-25T10:38:49;3.00;;;2.80;;
55222;SDS011;41090;48.632;12.428;2023-04-25T10:41:23;3.17;;;2.87;;
55222;SDS011;41090;48.632;12.428;2023-04-25T10:43:49;3.10;;;2.80;;
55222;SDS011;41090;48.632;12.428;2023-04-25T10:46:15;4.87;;;3.23;;
55222;SDS011;41090;48.632;12.428;2023-04-25T10:48:51;3.10;;;2.60;;
55222;SDS011;41090;48.632;12.428;2023-04-25T10:51:17;2.77;;;2.57;;
55222;SDS011;41090;48.632;12.428;2023-04-25T10:53:44;3.37;;;2.77;;
55222;SDS011;41090;48.632;12.428;2023-04-25T10:56:19;3.67;;;3.37;;
55222;SDS011;41090;48.632;12.428;2023-04-25T10:58:45;2.70;;;2.50;;
55222;SDS011;41090;48.632;12.428;2023-04-25T11:01:12;3.40;;;2.90;;
55222;SDS011;41090;48.632;12.428;2023-04-25T11:03:44;3.23;;;2.93;;
55222;SDS011;41090;48.632;12.428;2023-04-25T11:06:22;3.43;;;3.13;;
55222;SDS011;41090;48.632;12.428;2023-04-25T11:08:51;3.93;;;3.63;;
55222;SDS011;41090;48.632;12.428;2023-04-25T11:11:19;4.03;;;2.33;;
55222;SDS011;41090;48.632;12.428;2023-04-25T11:13:48;1.90;;;1.80;;
55222;SDS011;41090;48.632;12.428;2023-04-25T11:28:38;3.53;;;2.67;;
55222;SDS011;41090;48.632;12.428;2023-04-25T11:31:06;4.90;;;2.87;;
55222;SDS011;41090;48.632;12.428;2023-04-25T11:33:31;2.67;;;2.47;;
55222;SDS011;41090;48.632;12.428;2023-04-25T11:35:57;2.37;;;2.17;;
55222;SDS011;41090;48.632;12.428;2023-04-25T11:38:22;2.40;;;2.20;;
55222;SDS011;41090;48.632;12.428;2023-04-25T11:40:49;2.77;;;2.57;;
55222;SDS011;41090;48.632;12.428;2023-04-25T11:43:15;2.57;;;2.20;;
55222;SDS011;41090;48.632;12.428;2023-04-25T11:45:41;2.50;;;2.30;;
55222;SDS011;41090;48.632;12.428;2023-04-25T11:48:11;2.40;;;2.20;;
55222;SDS011;41090;48.632;12.428;2023-04-25T11:50:38;2.67;;;2.30;;
55222;SDS011;41090;48.632;12.428;2023-04-25T11:53:03;2.73;;;2.40;;
55222;SDS011;41090;48.632;12.428;2023-04-25T11:57:59;2.20;;;2.00;;
55222;SDS011;41090;48.632;12.428;2023-04-25T12:00:25;1.90;;;1.80;;
55222;SDS011;41090;48.632;12.428;2023-04-25T12:02:51;1.90;;;1.70;;
55222;SDS011;41090;48.632;12.428;2023-04-25T12:05:17;2.40;;;2.20;;
55222;SDS011;41090;48.632;12.428;2023-04-25T12:07:42;2.40;;;2.20;;
55222;SDS011;41090;48.632;12.428;2023-04-25T12:10:11;2.30;;;2.10;;
55222;SDS011;41090;48.632;12.428;2023-04-25T12:12:37;2.43;;;2.00;;
55222;SDS011;41090;48.632;12.428;2023-04-25T12:15:10;1.90;;;1.80;;
55222;SDS011;41090;48.632;12.428;2023-04-25T12:17:36;2.00;;;1.90;;
55222;SDS011;41090;48.632;12.428;2023-04-25T12:20:09;2.20;;;1.97;;
55222;SDS011;41090;48.632;12.428;2023-04-25T12:22:40;2.87;;;2.20;;
55222;SDS011;41090;48.632;12.428;2023-04-25T12:25:05;2.00;;;1.90;;
55222;SDS011;41090;48.632;12.428;2023-04-25T12:27:32;1.90;;;1.80;;
55222;SDS011;41090;48.632;12.428;2023-04-25T12:29:58;1.90;;;1.80;;
55222;SDS011;41090;48.632;12.428;2023-04-25T12:32:24;1.90;;;1.80;;
55222;SDS011;41090;48.632;12.428;2023-04-25T12:34:50;1.90;;;1.80;;
55222;SDS011;41090;48.632;12.428;2023-04-25T12:37:15;2.07;;;1.97;;
55222;SDS011;41090;48.632;12.428;2023-04-25T12:39:40;1.90;;;1.80;;
55222;SDS011;41090;48.632;12.428;2023-04-25T12:42:06;1.80;;;1.70;;
55222;SDS011;41090;48.632;12.428;2023-04-25T12:44:33;2.13;;;1.70;;
55222;SDS011;41090;48.632;12.428;2023-04-25T12:46:58;1.50;;;1.40;;
55222;SDS011;41090;48.632;12.428;2023-04-25T12:49:24;1.73;;;1.63;;
55222;SDS011;41090;48.632;12.428;2023-04-25T12:51:50;1.73;;;1.63;;
55222;SDS011;41090;48.632;12.428;2023-04-25T12:54:17;2.33;;;1.60;;
55222;SDS011;41090;48.632;12.428;2023-04-25T12:56:43;1.90;;;1.80;;
55222;SDS011;41090;48.632;12.428;2023-04-25T12:59:08;1.90;;;1.80;;
55222;SDS011;41090;48.632;12.428;2023-04-25T13:01:34;2.07;;;1.70;;
55222;SDS011;41090;48.632;12.428;2023-04-25T13:03:59;1.70;;;1.60;;
55222;SDS011;41090;48.632;12.428;2023-04-25T13:06:25;1.80;;;1.70;;
55222;SDS011;41090;48.632;12.428;2023-04-25T13:08:51;1.80;;;1.70;;
55222;SDS011;41090;48.632;12.428;2023-04-25T13:11:16;3.10;;;2.20;;
55222;SDS011;41090;48.632;12.428;2023-04-25T13:13:42;2.70;;;2.20;;
55222;SDS011;41090;48.632;12.428;2023-04-25T13:16:08;1.70;;;1.60;;
55222;SDS011;41090;48.632;12.428;2023-04-25T13:18:33;1.70;;;1.60;;
55222;SDS011;41090;48.632;12.428;2023-04-25T13:21:00;2.83;;;1.83;;
55222;SDS011;41090;48.632;12.428;2023-04-25T13:23:27;1.93;;;1.80;;
55222;SDS011;41090;48.632;12.428;2023-04-25T13:25:52;2.43;;;1.70;;
55222;SDS011;41090;48.632;12.428;2023-04-25T13:28:18;1.90;;;1.63;;
55222;SDS011;41090;48.632;12.428;2023-04-25T13:30:43;2.03;;;1.83;;
55222;SDS011;41090;48.632;12.428;2023-04-25T13:33:08;2.67;;;1.70;;
55222;SDS011;41090;48.632;12.428;2023-04-25T13:35:36;2.33;;;1.90;;
55222;SDS011;41090;48.632;12.428;2023-04-25T13:38:02;2.70;;;2.07;;
55222;SDS011;41090;48.632;12.428;2023-04-25T13:40:27;2.37;;;2.13;;
55222;SDS011;41090;48.632;12.428;2023-04-25T13:42:54;2.80;;;2.50;;
55222;SDS011;41090;48.632;12.428;2023-04-25T13:45:19;4.17;;;2.97;;
55222;SDS011;41090;48.632;12.428;2023-04-25T13:47:45;3.67;;;2.30;;
55222;SDS011;41090;48.632;12.428;2023-04-25T13:50:10;2.40;;;2.20;;
55222;SDS011;41090;48.632;12.428;2023-04-25T13:52:36;3.50;;;3.03;;
55222;SDS011;41090;48.632;12.428;2023-04-25T13:55:01;2.67;;;2.40;;
55222;SDS011;41090;48.632;12.428;2023-04-25T13:57:28;3.00;;;2.43;;
55222;SDS011;41090;48.632;12.428;2023-04-25T13:59:59;2.50;;;2.30;;
55222;SDS011;41090;48.632;12.428;2023-04-25T14:02:31;2.83;;;2.30;;
55222;SDS011;41090;48.632;12.428;2023-04-25T14:05:06;2.43;;;2.20;;
55222;SDS011;41090;48.632;12.428;2023-04-25T14:07:32;3.17;;;2.77;;
55222;SDS011;41090;48.632;12.428;2023-04-25T14:10:00;3.10;;;2.80;;
55222;SDS011;41090;48.632;12.428;2023-04-25T14:12:26;2.60;;;2.40;;
55222;SDS011;41090;48.632;12.428;2023-04-25T14:14:51;2.87;;;2.60;;
55222;SDS011;41090;48.632;12.428;2023-04-25T14:20:08;3.00;;;2.80;;
55222;SDS011;41090;48.632;12.428;2023-04-25T14:22:34;3.13;;;2.83;;
55222;SDS011;41090;48.632;12.428;2023-04-25T14:24:59;4.13;;;3.00;;
55222;SDS011;41090;48.632;12.428;2023-04-25T14:27:25;3.43;;;3.13;;
55222;SDS011;41090;48.632;12.428;2023-04-25T14:29:53;3.87;;;3.33;;
55222;SDS011;41090;48.632;12.428;2023-04-25T14:32:19;3.43;;;2.97;;
55222;SDS011;41090;48.632;12.428;2023-04-25T14:34:46;3.40;;;2.90;;
55222;SDS011;41090;48.632;12.428;2023-04-25T14:37:11;3.50;;;2.97;;
55222;SDS011;41090;48.632;12.428;2023-04-25T14:39:36;3.10;;;2.80;;
55222;SDS011;41090;48.632;12.428;2023-04-25T14:42:02;3.57;;;2.93;;
55222;SDS011;41090;48.632;12.428;2023-04-25T14:44:28;2.87;;;2.67;;
55222;SDS011;41090;48.632;12.428;2023-04-25T14:46:53;3.93;;;2.80;;
55222;SDS011;41090;48.632;12.428;2023-04-25T14:49:18;3.10;;;2.80;;
55222;SDS011;41090;48.632;12.428;2023-04-25T14:51:44;3.40;;;3.10;;
55222;SDS011;41090;48.632;12.428;2023-04-25T14:54:09;3.17;;;2.73;;
55222;SDS011;41090;48.632;12.428;2023-04-25T14:56:36;3.57;;;3.27;;
55222;SDS011;41090;48.632;12.428;2023-04-25T14:59:01;3.00;;;2.70;;
55222;SDS011;41090;48.632;12.428;2023-04-25T15:01:27;3.50;;;3.20;;
55222;SDS011;41090;48.632;12.428;2023-04-25T15:03:52;3.30;;;3.00;;
55222;SDS011;41090;48.632;12.428;2023-04-25T15:06:17;3.40;;;3.10;;
55222;SDS011;41090;48.632;12.428;2023-04-25T15:08:42;3.00;;;2.80;;
55222;SDS011;41090;48.632;12.428;2023-04-25T15:11:08;3.43;;;2.90;;
55222;SDS011;41090;48.632;12.428;2023-04-25T15:13:33;3.30;;;3.00;;
55222;SDS011;41090;48.632;12.428;2023-04-25T15:16:02;6.13;;;3.30;;
55222;SDS011;41090;48.632;12.428;2023-04-25T15:18:27;3.73;;;3.10;;
55222;SDS011;41090;48.632;12.428;2023-04-25T15:20:53;3.70;;;3.40;;
55222;SDS011;41090;48.632;12.428;2023-04-25T15:23:19;4.10;;;3.07;;
55222;SDS011;41090;48.632;12.428;2023-04-25T15:25:45;3.53;;;3.00;;
55222;SDS011;41090;48.632;12.428;2023-04-25T15:28:13;3.40;;;3.10;;
55222;SDS011;41090;48.632;12.428;2023-04-25T15:30:42;3.23;;;2.90;;
55222;SDS011;41090;48.632;12.428;2023-04-25T15:33:12;3.40;;;3.10;;
55222;SDS011;41090;48.632;12.428;2023-04-25T15:35:39;3.50;;;3.20;;
55222;SDS011;41090;48.632;12.428;2023-04-25T15:38:08;3.60;;;3.30;;
55222;SDS011;41090;48.632;12.428;2023-04-25T15:40:36;3.30;;;3.00;;
55222;SDS011;41090;48.632;12.428;2023-04-25T15:43:06;3.40;;;3.10;;
55222;SDS011;41090;48.632;12.428;2023-04-25T15:45:33;3.13;;;2.83;;
55222;SDS011;41090;48.632;12.428;2023-04-25T15:48:02;3.87;;;3.50;;
55222;SDS011;41090;48.632;12.428;2023-04-25T15:50:27;3.67;;;3.30;;
55222;SDS011;41090;48.632;12.428;2023-04-25T15:52:53;3.93;;;3.53;;